Time;durP1;ratioP1;P1;durP2;ratioP2;P2;SDS_P1;SDS_P2;PMS_P1;PMS_P2;Temp;Humidity;BMP_temperature;BMP_pressure;BME280_temperature;BME280_humidity;BME280_pressure;Samples;Min_cycle;Max_cycle;Signal;HPM_P1;HPM_P2
2022/11/20 00:01:36;;;;;;;0.00;0.00;;;;;;;4.66;59.92;99569.22;4374392;32;33098;-89
2022/11/20 00:04:24;;;;;;;0.47;0.47;;;;;;;4.18;61.07;99564.19;4361824;32;33877;-89
2022/11/20 00:06:52;;;;;;;2.50;1.87;;;;;;;4.43;60.26;99559.28;4379324;32;32290;-90
2022/11/20 00:09:20;;;;;;;3.42;1.23;;;;;;;4.53;60.14;99559.91;4355324;32;32572;-89
2022/11/20 00:11:48;;;;;;;0.85;0.85;;;;;;;4.84;58.81;99558.31;4370979;32;33335;-89
2022/11/20 00:14:16;;;;;;;0.20;0.20;;;;;;;4.76;58.74;99565.47;4368293;32;32945;-89
2022/11/20 00:16:44;;;;;;;1.25;1.15;;;;;;;4.83;58.92;99556.56;4357136;32;32417;-90
2022/11/20 00:19:12;;;;;;;0.68;0.68;;;;;;;4.77;58.74;99558.47;4368207;32;34175;-90
2022/11/20 00:21:40;;;;;;;1.00;1.00;;;;;;;4.90;58.51;99561.66;4368387;32;33059;-89
2022/11/20 00:24:10;;;;;;;1.20;1.12;;;;;;;5.19;57.37;99568.78;4355024;32;33559;-89
2022/11/20 00:26:37;;;;;;;0.43;0.32;;;;;;;5.05;57.95;99574.37;4370870;32;32535;-89
2022/11/20 00:29:09;;;;;;;1.48;1.37;;;;;;;5.16;58.32;99566.25;4369184;32;33763;-90
2022/11/20 00:31:38;;;;;;;0.15;0.15;;;;;;;5.21;58.25;99554.75;4370777;32;34210;-91
2022/11/20 00:34:10;;;;;;;0.00;0.00;;;;;;;5.35;58.78;99564.88;4369714;32;32959;-90
2022/11/20 00:36:40;;;;;;;0.20;0.20;;;;;;;5.27;59.23;99586.03;4370189;32;32473;-90
2022/11/20 00:39:08;;;;;;;0.40;0.40;;;;;;;5.25;59.57;99590.44;4380073;32;33816;-90
2022/11/20 00:41:36;;;;;;;1.65;1.55;;;;;;;5.42;58.57;99589.16;4369079;32;33267;-90
2022/11/20 00:44:05;;;;;;;0.20;0.20;;;;;;;5.48;57.45;99573.25;4398139;32;32433;-90
2022/11/20 00:46:33;;;;;;;0.85;0.85;;;;;;;5.47;56.83;99559.31;4381476;32;32437;-89
2022/11/20 00:49:01;;;;;;;0.52;0.52;;;;;;;5.48;56.58;99557.56;4386080;32;32698;-87
2022/11/20 00:51:29;;;;;;;0.82;0.82;;;;;;;5.20;56.96;99566.13;4404664;32;33948;-88
2022/11/20 00:53:57;;;;;;;0.32;0.32;;;;;;;5.05;57.11;99556.91;4390460;32;33881;-89
2022/11/20 00:56:26;;;;;;;0.80;0.80;;;;;;;5.04;57.64;99556.97;4394058;32;33486;-88
2022/11/20 00:58:54;;;;;;;3.03;0.88;;;;;;;4.68;58.46;99556.09;4397728;32;34038;-87
2022/11/20 01:01:24;;;;;;;0.10;0.10;;;;;;;4.98;57.47;99549.25;4378543;32;34064;-87
2022/11/20 01:03:53;;;;;;;0.00;0.00;;;;;;;4.94;57.70;99552.81;4398404;32;33605;-86
2022/11/20 01:06:27;;;;;;;1.17;1.17;;;;;;;5.14;56.86;99553.22;4396434;32;33143;-86
2022/11/20 01:08:57;;;;;;;0.60;0.60;;;;;;;4.72;58.42;99566.44;4396940;32;34147;-87
2022/11/20 01:11:33;;;;;;;1.48;1.40;;;;;;;4.79;57.97;99567.13;4397736;32;34676;-87
2022/11/20 01:14:04;;;;;;;1.58;1.50;;;;;;;4.68;58.25;99571.78;4389519;32;33854;-89
2022/11/20 01:16:38;;;;;;;0.15;0.15;;;;;;;4.70;57.81;99576.09;4392349;32;32701;-89
2022/11/20 01:19:09;;;;;;;2.40;1.17;;;;;;;4.49;58.68;99584.41;4398225;32;33484;-89
2022/11/20 01:21:42;;;;;;;0.00;0.00;;;;;;;4.36;59.10;99571.59;4409360;32;33364;-89
2022/11/20 01:24:14;;;;;;;1.00;1.00;;;;;;;4.70;58.41;99583.94;4410699;32;32739;-89
2022/11/20 01:26:43;;;;;;;0.15;0.15;;;;;;;5.11;56.85;99582.91;4408603;32;32670;-89
2022/11/20 01:29:15;;;;;;;3.00;1.00;;;;;;;5.21;57.40;99580.94;4387798;32;33136;-89
2022/11/20 01:31:43;;;;;;;0.93;0.82;;;;;;;5.24;57.62;99577.38;4396996;32;33872;-89
2022/11/20 01:34:13;;;;;;;2.90;1.65;;;;;;;5.29;57.97;99563.28;4408269;32;33808;-87
2022/11/20 01:36:41;;;;;;;3.40;1.25;;;;;;;5.25;58.64;99572.09;4382121;32;33766;-86
2022/11/20 01:39:22;;;;;;;0.47;0.47;;;;;;;5.21;59.12;99573.06;4395971;32;32806;-86
2022/11/20 01:47:50;;;;;;;0.95;0.95;;;;;;;5.48;58.89;99555.78;4384329;32;32616;-87
2022/11/20 01:50:28;;;;;;;2.42;2.22;;;;;;;5.57;58.66;99560.78;4389503;32;34612;-90
2022/11/20 01:53:02;;;;;;;0.50;0.50;;;;;;;5.49;58.66;99552.25;4383492;32;33040;-89
2022/11/20 01:55:40;;;;;;;1.90;1.77;;;;;;;5.66;58.17;99549.19;4393881;32;34034;-89
2022/11/20 01:58:08;;;;;;;0.55;0.55;;;;;;;5.60;58.25;99550.25;4376291;32;33048;-91
2022/11/20 02:05:21;;;;;;;0.75;0.75;;;;;;;5.63;58.68;99544.91;4372193;32;34665;-90
2022/11/20 02:07:49;;;;;;;0.82;0.82;;;;;;;5.75;58.39;99538.47;4376803;32;32482;-90
2022/11/20 02:10:17;;;;;;;0.65;0.65;;;;;;;5.69;58.40;99551.72;4371372;32;32873;-90
2022/11/20 02:15:37;;;;;;;0.62;0.62;;;;;;;5.72;58.33;99549.03;4363428;32;33971;-89
2022/11/20 02:18:05;;;;;;;0.93;0.88;;;;;;;5.86;57.95;99541.63;4374553;32;33882;-86
2022/11/20 02:20:33;;;;;;;1.75;1.48;;;;;;;5.88;57.99;99544.19;4376243;32;33615;-88
2022/11/20 02:23:08;;;;;;;1.65;1.27;;;;;;;5.76;57.91;99555.91;4363279;32;37305;-87
2022/11/20 02:25:36;;;;;;;1.15;1.10;;;;;;;5.74;57.97;99565.53;4351642;32;33058;-88
2022/11/20 02:28:05;;;;;;;1.87;1.52;;;;;;;5.79;58.14;99566.31;4364124;32;34438;-88
2022/11/20 02:30:33;;;;;;;2.28;2.17;;;;;;;5.77;57.79;99556.75;4375060;32;32723;-88
2022/11/20 02:33:18;;;;;;;2.50;0.43;;;;;;;5.73;57.88;99545.50;4388362;32;34435;-89
2022/11/20 02:35:47;;;;;;;1.33;1.23;;;;;;;5.74;58.47;99544.59;4364479;32;34658;-90
2022/11/20 02:38:14;;;;;;;0.52;0.52;;;;;;;5.56;58.91;99537.25;4351771;32;33160;-89
2022/11/20 02:40:42;;;;;;;1.55;1.05;;;;;;;5.35;59.29;99539.53;4374227;32;32447;-89
2022/11/20 02:43:10;;;;;;;0.75;0.75;;;;;;;5.30;59.84;99544.03;4376227;32;33170;-89
2022/11/20 02:45:38;;;;;;;0.60;0.60;;;;;;;5.46;59.54;99536.66;4376334;32;33373;-89
2022/11/20 02:48:06;;;;;;;1.27;1.27;;;;;;;5.55;59.38;99535.53;4375183;32;33403;-90
2022/11/20 02:50:37;;;;;;;3.17;1.23;;;;;;;5.29;60.38;99538.84;4375766;32;32990;-89
2022/11/20 02:53:04;;;;;;;0.98;0.93;;;;;;;5.57;59.50;99538.97;4346698;32;33199;-89
2022/11/20 02:55:32;;;;;;;2.05;1.73;;;;;;;5.51;60.15;99541.78;4364119;32;33873;-89
2022/11/20 02:58:00;;;;;;;1.27;0.75;;;;;;;5.45;60.74;99544.53;4364221;32;32909;-89
2022/11/20 03:00:27;;;;;;;3.47;3.25;;;;;;;4.96;62.00;99532.72;4374379;32;32803;-89
2022/11/20 03:02:55;;;;;;;1.48;1.40;;;;;;;5.36;60.74;99524.69;4364318;32;33867;-88
2022/11/20 03:05:23;;;;;;;0.20;0.20;;;;;;;5.23;61.23;99523.31;4374294;32;33692;-89
2022/11/20 03:07:50;;;;;;;0.65;0.65;;;;;;;5.26;61.22;99518.84;4364055;32;34164;-90
2022/11/20 03:10:18;;;;;;;1.30;1.20;;;;;;;5.61;60.19;99509.19;4374490;32;32790;-90
2022/11/20 03:12:46;;;;;;;1.35;1.25;;;;;;;5.64;59.97;99514.31;4355431;32;34557;-89
2022/11/20 03:15:14;;;;;;;2.08;1.92;;;;;;;5.54;60.39;99518.09;4376988;32;33046;-89
2022/11/20 03:17:41;;;;;;;3.45;2.53;;;;;;;5.35;60.81;99515.13;4364604;32;33552;-88
2022/11/20 03:20:10;;;;;;;1.87;1.77;;;;;;;5.49;60.60;99515.59;4376694;32;32386;-88
2022/11/20 03:22:37;;;;;;;2.35;0.90;;;;;;;5.73;59.94;99521.91;4364462;32;33802;-89
2022/11/20 03:25:05;;;;;;;2.20;2.10;;;;;;;5.98;59.06;99542.19;4350169;32;33751;-90
2022/11/20 03:27:34;;;;;;;0.98;0.98;;;;;;;5.57;60.38;99550.31;4361319;32;32588;-89
2022/11/20 03:30:02;;;;;;;1.87;1.77;;;;;;;5.56;60.62;99547.75;4376373;32;32299;-88
2022/11/20 03:32:29;;;;;;;4.03;2.10;;;;;;;5.68;60.27;99552.63;4375800;32;32862;-88
2022/11/20 03:34:57;;;;;;;1.85;1.75;;;;;;;5.81;59.87;99538.28;4375488;32;33425;-88
2022/11/20 03:37:25;;;;;;;4.95;2.05;;;;;;;5.92;59.24;99530.13;4375389;32;34530;-88
2022/11/20 03:39:52;;;;;;;0.32;0.32;;;;;;;5.90;59.31;99527.53;4362845;32;33438;-87
2022/11/20 03:45:07;;;;;;;1.00;1.00;;;;;;;5.98;58.99;99524.75;4352838;32;32734;-87
2022/11/20 03:47:34;;;;;;;5.37;4.50;;;;;;;6.17;58.28;99519.78;4376050;32;33004;-90
2022/11/20 03:50:03;;;;;;;0.85;0.62;;;;;;;5.91;59.28;99523.16;4365450;32;33315;-90
2022/11/20 03:52:30;;;;;;;0.75;0.75;;;;;;;5.99;58.97;99531.69;4377364;32;32985;-90
2022/11/20 03:54:58;;;;;;;0.75;0.75;;;;;;;6.07;59.02;99528.81;4364203;32;34061;-89
2022/11/20 03:57:26;;;;;;;1.17;1.10;;;;;;;6.15;58.72;99537.34;4377328;32;34072;-89
2022/11/20 03:59:53;;;;;;;1.73;0.95;;;;;;;6.07;58.87;99534.06;4364582;32;34062;-90
2022/11/20 04:02:21;;;;;;;1.10;1.10;;;;;;;6.26;58.47;99519.50;4377145;32;32945;-89
2022/11/20 04:04:50;;;;;;;2.08;1.87;;;;;;;6.36;58.10;99507.84;4363554;32;34107;-90
2022/11/20 04:07:18;;;;;;;2.42;2.20;;;;;;;6.44;58.25;99511.97;4384315;32;32514;-90
2022/11/20 04:09:45;;;;;;;2.08;1.67;;;;;;;6.46;58.35;99512.78;4376346;32;32004;-90
2022/11/20 04:12:13;;;;;;;3.05;2.83;;;;;;;6.49;58.32;99504.81;4377013;32;32411;-90
2022/11/20 04:14:41;;;;;;;2.83;2.62;;;;;;;6.44;58.54;99502.34;4351150;32;32546;-90
2022/11/20 04:17:08;;;;;;;1.35;1.30;;;;;;;6.48;58.26;99487.38;4375353;32;32833;-89
2022/11/20 04:19:36;;;;;;;0.98;0.98;;;;;;;6.40;58.37;99491.09;4376511;32;32687;-90
2022/11/20 04:22:04;;;;;;;0.73;0.73;;;;;;;6.19;59.08;99481.28;4378116;32;32234;-89
2022/11/20 04:24:31;;;;;;;0.73;0.70;;;;;;;5.81;60.46;99482.41;4375481;32;32866;-89
2022/11/20 04:26:59;;;;;;;2.92;2.62;;;;;;;5.71;61.26;99489.69;4364341;32;33034;-88
2022/11/20 04:29:26;;;;;;;1.10;1.02;;;;;;;5.60;61.62;99491.72;4377795;32;33968;-88
2022/11/20 04:31:54;;;;;;;1.30;1.30;;;;;;;5.78;61.11;99491.19;4362943;32;33601;-88
2022/11/20 04:34:22;;;;;;;1.12;1.10;;;;;;;5.85;60.90;99492.75;4364005;32;33939;-89
2022/11/20 04:36:49;;;;;;;0.95;0.60;;;;;;;5.92;60.46;99489.97;4377666;32;32454;-89
2022/11/20 04:39:17;;;;;;;3.10;2.22;;;;;;;5.93;60.11;99494.31;4353108;32;33202;-89
2022/11/20 04:41:45;;;;;;;3.10;1.77;;;;;;;6.28;58.93;99478.38;4376330;32;34219;-90
2022/11/20 04:44:12;;;;;;;3.67;2.20;;;;;;;6.00;59.66;99474.91;4377748;32;33179;-89
2022/11/20 04:46:41;;;;;;;0.82;0.82;;;;;;;5.92;60.36;99474.25;4360226;32;34394;-89
2022/11/20 04:49:10;;;;;;;1.30;1.20;;;;;;;6.02;60.31;99481.78;4375809;32;32323;-92
2022/11/20 04:51:53;;;;;;;1.83;1.67;;;;;;;5.99;61.13;99473.19;4385932;32;33070;-91
2022/11/20 04:55:01;;;;;;;0.90;0.90;;;;;;;6.10;60.94;99468.47;4406885;32;34632;-91
2022/11/20 04:58:51;;;;;;;2.25;2.05;;;;;;;6.21;60.52;99457.63;4389785;32;35363;-88
2022/11/20 05:01:22;;;;;;;1.23;1.12;;;;;;;6.28;60.28;99453.94;4399867;32;33217;-88
2022/11/20 05:03:50;;;;;;;1.65;1.55;;;;;;;6.26;59.97;99467.06;4373396;32;32799;-89
2022/11/20 05:06:19;;;;;;;1.23;0.95;;;;;;;6.16;60.17;99468.25;4369594;32;33008;-89
2022/11/20 05:08:47;;;;;;;2.50;1.95;;;;;;;6.13;60.62;99471.00;4381282;32;32690;-88
2022/11/20 05:11:18;;;;;;;1.27;1.20;;;;;;;6.29;60.06;99469.59;4360601;32;33139;-90
2022/11/20 05:13:47;;;;;;;0.40;0.40;;;;;;;6.11;60.37;99478.88;4400572;32;33546;-92
2022/11/20 05:16:30;;;;;;;0.90;0.90;;;;;;;6.25;60.23;99467.97;4380043;32;33308;-92
2022/11/20 05:19:11;;;;;;;2.35;1.98;;;;;;;6.29;60.05;99469.59;4390051;32;33998;-92
2022/11/20 05:21:54;;;;;;;0.20;0.20;;;;;;;6.08;60.99;99471.12;4399215;32;33307;-91
2022/11/20 05:24:36;;;;;;;5.65;1.50;;;;;;;6.21;61.09;99476.84;4371353;32;33683;-91
2022/11/20 05:27:18;;;;;;;;;;;;;;;6.20;61.21;99467.25;4363703;32;33116;-91
2022/11/20 05:30:05;;;;;;;2.08;1.65;;;;;;;6.25;60.87;99454.88;4391663;32;33694;-91
2022/11/20 05:32:50;;;;;;;0.28;0.28;;;;;;;6.31;60.77;99451.19;4412626;32;33096;-94
2022/11/20 05:35:32;;;;;;;1.40;1.12;;;;;;;6.46;60.01;99445.47;4368152;32;33217;-94
2022/11/20 05:38:15;;;;;;;0.62;0.60;;;;;;;6.61;59.09;99431.84;4391495;32;33835;-93
2022/11/20 05:41:09;;;;;;;0.25;0.25;;;;;;;6.35;60.42;99429.22;4347997;33;33506;-91
2022/11/20 05:43:41;;;;;;;1.70;1.62;;;;;;;6.40;60.20;99443.88;4327940;32;31708;-88
2022/11/20 05:46:15;;;;;;;3.83;1.80;;;;;;;6.63;59.19;99445.75;4327281;33;32969;-91
2022/11/20 05:49:03;;;;;;;7.93;2.53;;;;;;;6.23;60.41;99456.69;4314635;33;32856;-91
2022/11/20 05:51:31;;;;;;;2.83;2.17;;;;;;;6.38;60.28;99460.59;4337946;32;32597;-89
2022/11/20 05:53:58;;;;;;;0.65;0.65;;;;;;;6.40;60.15;99464.88;4336155;32;32650;-89
2022/11/20 05:56:26;;;;;;;2.97;2.20;;;;;;;6.39;59.93;99463.16;4323452;33;35267;-89
2022/11/20 05:58:54;;;;;;;2.05;1.67;;;;;;;6.35;60.02;99479.88;4326286;32;33379;-91
2022/11/20 06:01:24;;;;;;;0.32;0.32;;;;;;;6.29;59.93;99476.63;4336966;32;32815;-95
2022/11/20 06:04:10;;;;;;;1.67;1.50;;;;;;;6.67;58.63;99463.12;4354111;32;32369;-95
2022/11/20 06:06:57;;;;;;;2.05;1.77;;;;;;;6.34;59.34;99486.03;4407081;32;33050;-94
2022/11/20 06:09:29;;;;;;;8.05;3.22;;;;;;;6.43;59.46;99476.19;4395563;32;33926;-89
2022/11/20 06:11:57;;;;;;;2.08;0.52;;;;;;;6.64;58.38;99463.22;4401122;32;33249;-90
2022/11/20 06:14:24;;;;;;;0.10;0.10;;;;;;;6.77;57.54;99474.16;4386516;32;32321;-87
2022/11/20 06:16:52;;;;;;;0.47;0.47;;;;;;;6.64;58.17;99483.34;4400783;32;32714;-87
2022/11/20 06:19:19;;;;;;;0.25;0.25;;;;;;;6.50;57.92;99475.91;4377476;32;33265;-87
2022/11/20 06:21:49;;;;;;;1.05;1.05;;;;;;;6.48;58.51;99482.13;4389307;32;32915;-87
2022/11/20 06:24:17;;;;;;;0.77;0.77;;;;;;;6.55;57.71;99481.00;4381639;32;32434;-86
2022/11/20 06:26:45;;;;;;;1.95;1.50;;;;;;;6.32;58.39;99472.12;4383890;32;32834;-86
2022/11/20 06:29:12;;;;;;;0.50;0.50;;;;;;;6.24;59.18;99482.00;4387155;32;34178;-87
2022/11/20 06:31:42;;;;;;;0.50;0.50;;;;;;;6.28;59.07;99475.75;4389217;32;34264;-85
2022/11/20 06:34:09;;;;;;;0.40;0.40;;;;;;;6.38;58.70;99486.81;4395862;32;33349;-87
2022/11/20 06:36:37;;;;;;;2.92;2.37;;;;;;;6.00;59.87;99501.09;4382665;32;32479;-85
2022/11/20 06:39:05;;;;;;;2.10;2.00;;;;;;;6.23;59.34;99511.75;4393510;32;34863;-86
2022/11/20 06:41:32;;;;;;;1.52;1.42;;;;;;;6.54;58.17;99505.53;4407862;32;34405;-87
2022/11/20 06:44:00;;;;;;;1.35;1.25;;;;;;;6.25;58.93;99512.53;4386800;32;32722;-87
2022/11/20 06:46:27;;;;;;;1.65;0.93;;;;;;;6.08;59.67;99520.09;4408398;32;33942;-87
2022/11/20 06:48:55;;;;;;;0.68;0.68;;;;;;;6.13;59.73;99520.81;4384574;32;33359;-86
2022/11/20 06:51:22;;;;;;;3.22;2.95;;;;;;;6.12;59.33;99521.69;4380562;32;33618;-87
2022/11/20 06:53:50;;;;;;;1.65;1.55;;;;;;;6.44;58.47;99518.09;4403000;32;32100;-86
2022/11/20 06:56:18;;;;;;;1.25;0.50;;;;;;;6.47;58.56;99509.28;4388038;32;33798;-87
2022/11/20 06:58:45;;;;;;;1.73;1.27;;;;;;;6.36;58.50;99494.75;4399499;32;34535;-87
2022/11/20 07:01:14;;;;;;;1.25;1.02;;;;;;;6.35;58.77;99494.75;4409040;32;33996;-87
2022/11/20 07:03:42;;;;;;;1.52;1.50;;;;;;;6.65;58.20;99490.31;4397723;32;33626;-87
2022/11/20 07:06:10;;;;;;;5.05;3.78;;;;;;;6.53;59.07;99496.81;4385651;32;32893;-87
2022/11/20 07:08:38;;;;;;;0.60;0.50;;;;;;;6.73;57.79;99503.19;4383822;32;32894;-87
2022/11/20 07:11:07;;;;;;;0.20;0.20;;;;;;;6.67;58.15;99509.50;4377895;32;32592;-87
2022/11/20 07:13:34;;;;;;;0.65;0.65;;;;;;;6.70;58.59;99511.16;4371095;32;32743;-87
2022/11/20 07:16:05;;;;;;;0.65;0.62;;;;;;;6.76;58.53;99519.69;4397090;32;34491;-88
2022/11/20 07:18:33;;;;;;;10.77;7.55;;;;;;;6.85;58.04;99522.00;4387506;32;33168;-87
2022/11/20 07:21:06;;;;;;;9.07;6.57;;;;;;;6.61;58.71;99517.56;4374720;32;33967;-88
2022/11/20 07:23:34;;;;;;;6.65;5.87;;;;;;;6.71;58.91;99516.34;4386203;32;32910;-87
2022/11/20 07:26:04;;;;;;;2.03;1.20;;;;;;;6.66;59.32;99532.25;4385669;32;33552;-88
2022/11/20 07:28:31;;;;;;;2.00;1.90;;;;;;;6.73;59.67;99522.41;4398758;32;33231;-87
2022/11/20 07:30:59;;;;;;;1.98;1.73;;;;;;;6.71;59.98;99526.84;4410267;32;34056;-88
2022/11/20 07:33:30;;;;;;;2.05;1.65;;;;;;;6.78;59.93;99525.72;4389798;32;32925;-89
2022/11/20 07:36:01;;;;;;;1.90;1.80;;;;;;;6.50;61.20;99530.13;4389338;32;33176;-89
2022/11/20 07:38:29;;;;;;;3.42;2.53;;;;;;;6.85;59.98;99529.03;4401330;32;32881;-89
2022/11/20 07:40:57;;;;;;;4.53;1.92;;;;;;;6.84;60.31;99524.69;4393323;32;32752;-89
2022/11/20 07:43:25;;;;;;;0.52;0.52;;;;;;;6.89;59.77;99525.41;4393234;32;32714;-90
2022/11/20 07:45:57;;;;;;;0.28;0.28;;;;;;;6.92;60.10;99525.28;4384061;32;32698;-89
2022/11/20 07:48:25;;;;;;;2.62;2.42;;;;;;;6.76;61.27;99526.69;4376773;32;33709;-89
2022/11/20 07:50:54;;;;;;;1.85;1.75;;;;;;;6.78;61.23;99533.59;4376228;32;35517;-89
2022/11/20 07:53:23;;;;;;;0.98;0.98;;;;;;;6.66;61.68;99528.75;4393063;32;32609;-89
2022/11/20 07:55:52;;;;;;;5.75;4.28;;;;;;;6.70;61.56;99524.28;4392323;32;33649;-89
2022/11/20 07:58:34;;;;;;;2.05;1.95;;;;;;;6.65;61.94;99527.06;4380025;32;32688;-92
2022/11/20 08:01:16;;;;;;;2.87;2.75;;;;;;;6.75;62.15;99522.38;4350030;32;32525;-92
2022/11/20 08:04:11;;;;;;;7.10;3.25;;;;;;;6.71;62.59;99521.59;4347828;32;33899;-93
2022/11/20 08:07:00;;;;;;;0.98;0.98;;;;;;;7.02;61.31;99510.06;4341633;32;32448;-94
2022/11/20 08:09:41;;;;;;;2.90;2.25;;;;;;;6.90;61.84;99506.13;4377250;32;33401;-93
2022/11/20 08:15:24;;;;;;;1.17;0.85;;;;;;;6.89;61.72;99505.25;4366744;32;32706;-93
2022/11/20 08:18:11;;;;;;;1.33;1.25;;;;;;;6.95;61.79;99503.34;4361695;32;32702;-91
2022/11/20 08:21:16;;;;;;;1.12;1.00;;;;;;;7.11;61.92;99509.75;4358244;32;33199;-91
2022/11/20 08:23:44;;;;;;;3.30;3.10;;;;;;;7.17;61.73;99504.31;4364068;32;33589;-91
2022/11/20 08:26:38;;;;;;;1.42;1.33;;;;;;;7.10;62.33;99500.19;4369636;32;32329;-90
2022/11/20 08:29:22;;;;;;;9.90;2.33;;;;;;;7.44;60.98;99487.56;4158411;32;6987674;-92
2022/11/20 08:32:07;;;;;;;0.73;0.73;;;;;;;7.31;61.91;99502.06;4394396;32;33024;-92
2022/11/20 08:34:36;;;;;;;0.85;0.85;;;;;;;7.27;62.11;99510.97;4376117;32;33954;-90
2022/11/20 08:37:23;;;;;;;1.37;1.37;;;;;;;7.30;62.01;99521.34;4388309;32;32702;-91
2022/11/20 08:40:11;;;;;;;4.28;3.25;;;;;;;7.59;60.96;99516.84;4361685;32;32836;-91
2022/11/20 08:43:07;;;;;;;0.70;0.70;;;;;;;7.27;62.66;99512.75;4350469;32;32895;-92
2022/11/20 08:45:47;;;;;;;1.42;1.35;;;;;;;7.57;61.74;99508.16;4350047;32;33795;-92
2022/11/20 08:48:42;;;;;;;0.80;0.80;;;;;;;7.67;61.02;99520.91;4380510;32;34025;-92
2022/11/20 08:51:21;;;;;;;2.45;2.15;;;;;;;7.50;61.33;99532.91;4366083;32;34162;-90
2022/11/20 08:53:55;;;;;;;0.75;0.75;;;;;;;7.55;61.34;99531.00;4318004;32;34032;-91
2022/11/20 08:56:38;;;;;;;2.20;2.10;;;;;;;7.55;61.44;99538.88;4349878;32;32672;-91
2022/11/20 08:59:30;;;;;;;1.83;1.73;;;;;;;7.61;61.88;99538.69;4344443;32;32956;-90
2022/11/20 09:02:13;;;;;;;3.80;3.60;;;;;;;7.75;61.34;99538.19;4366431;32;32787;-91
2022/11/20 09:05:05;;;;;;;1.62;1.55;;;;;;;7.71;61.83;99550.56;4373383;32;32921;-91
2022/11/20 09:07:48;;;;;;;1.50;1.40;;;;;;;7.84;61.06;99546.59;4346922;32;32174;-93
2022/11/20 09:10:42;;;;;;;1.37;1.10;;;;;;;7.78;61.32;99553.81;4340488;33;33828;-92
2022/11/20 09:13:27;;;;;;;2.58;2.30;;;;;;;7.82;60.95;99540.50;4382919;32;33136;-90
2022/11/20 09:16:09;;;;;;;1.33;1.20;;;;;;;7.92;60.89;99544.50;4399371;32;32626;-92
2022/11/20 09:19:02;;;;;;;1.15;1.15;;;;;;;8.20;60.04;99543.47;4368364;32;33486;-92
2022/11/20 09:21:45;;;;;;;0.30;0.30;;;;;;;8.07;59.83;99553.63;4377235;32;32119;-92
2022/11/20 09:24:31;;;;;;;3.05;2.12;;;;;;;8.25;58.09;99545.94;4398454;32;33750;-92
2022/11/20 09:27:25;;;;;;;2.30;2.20;;;;;;;8.06;58.36;99544.00;4352650;32;34629;-92
2022/11/20 09:30:19;;;;;;;4.12;2.60;;;;;;;8.32;57.90;99539.53;4384325;32;32815;-93
2022/11/20 09:33:11;;;;;;;2.37;2.08;;;;;;;8.42;57.54;99536.53;4362817;32;32635;-92
2022/11/20 09:35:54;;;;;;;1.23;1.20;;;;;;;8.45;55.81;99531.16;4353935;32;32864;-92
2022/11/20 09:38:35;;;;;;;1.42;1.33;;;;;;;8.20;57.27;99527.69;4380541;32;32637;-91
2022/11/20 09:41:58;;;;;;;1.65;1.55;;;;;;;8.35;57.24;99542.88;4358328;32;32788;-93
2022/11/20 09:45:18;;;;;;;2.33;2.15;;;;;;;8.21;57.82;99537.31;4373144;32;32655;-92
2022/11/20 09:48:26;;;;;;;0.68;0.68;;;;;;;8.22;57.61;99525.88;4380034;32;33115;-92
2022/11/20 09:51:27;;;;;;;0.65;0.45;;;;;;;8.09;58.39;99535.16;4368357;32;34107;-92
2022/11/20 09:54:26;;;;;;;0.22;0.22;;;;;;;8.01;58.85;99537.19;4384407;32;34311;-92
2022/11/20 09:57:15;;;;;;;0.93;0.93;;;;;;;7.46;60.58;99536.59;4384593;32;33173;-93
2022/11/20 10:00:13;;;;;;;2.20;1.58;;;;;;;7.88;58.91;99534.16;4328854;32;32453;-92
2022/11/20 10:03:17;;;;;;;1.35;1.25;;;;;;;7.96;58.62;99530.34;4342066;32;32978;-92
2022/11/20 10:05:57;;;;;;;1.17;1.17;;;;;;;8.07;58.54;99529.97;4410577;32;33068;-92
2022/11/20 10:08:55;;;;;;;1.40;1.30;;;;;;;8.14;58.74;99535.84;4338171;32;32448;-93
2022/11/20 10:11:55;;;;;;;1.37;1.30;;;;;;;8.02;59.83;99528.41;4389576;32;32588;-92
2022/11/20 10:15:11;;;;;;;1.48;1.37;;;;;;;8.07;59.94;99508.03;4371862;32;32503;-93
2022/11/20 10:17:59;;;;;;;1.52;1.42;;;;;;;8.46;58.36;99500.44;4377058;32;32460;-92
2022/11/20 10:21:10;;;;;;;1.52;1.42;;;;;;;8.59;58.53;99491.13;4402051;32;32697;-93
2022/11/20 10:24:00;;;;;;;2.80;2.60;;;;;;;8.45;59.65;99489.06;4393033;32;32753;-92
2022/11/20 10:27:05;;;;;;;2.67;1.87;;;;;;;8.50;58.30;99490.63;4373216;32;33827;-92
2022/11/20 10:30:03;;;;;;;1.23;1.23;;;;;;;8.27;59.96;99489.75;4372548;32;32720;-92
2022/11/20 10:32:47;;;;;;;1.37;1.27;;;;;;;8.35;59.24;99495.53;4381111;32;32585;-92
2022/11/20 10:35:41;;;;;;;1.90;1.80;;;;;;;8.38;58.42;99492.81;4374907;32;33095;-92
2022/11/20 10:38:39;;;;;;;0.60;0.60;;;;;;;8.82;56.85;99478.78;4360331;32;32840;-91
2022/11/20 10:41:26;;;;;;;2.00;1.85;;;;;;;9.12;55.49;99476.66;4388181;32;33876;-91
2022/11/20 10:47:21;;;;;;;3.40;2.58;;;;;;;9.18;54.73;99471.97;4379403;32;33605;-92
2022/11/20 10:50:06;;;;;;;1.77;1.67;;;;;;;9.09;55.35;99476.75;4364727;32;33877;-92
2022/11/20 10:53:05;;;;;;;0.52;0.52;;;;;;;9.27;54.53;99469.84;4388010;32;32794;-92
2022/11/20 10:55:53;;;;;;;3.37;2.83;;;;;;;9.10;54.82;99470.56;4380923;32;33569;-91
2022/11/20 10:58:57;;;;;;;2.03;1.60;;;;;;;9.06;55.33;99480.38;4358992;32;32777;-92
2022/11/20 11:01:42;;;;;;;1.58;1.48;;;;;;;8.46;57.30;99498.66;4360498;32;32574;-90
2022/11/20 11:04:38;;;;;;;1.33;1.23;;;;;;;8.72;57.66;99507.25;4350227;32;33111;-89
2022/11/20 11:07:15;;;;;;;2.40;2.25;;;;;;;9.06;56.84;99503.22;4345607;32;32136;-89
2022/11/20 11:09:50;;;;;;;1.67;1.58;;;;;;;8.81;56.52;99498.97;4349959;32;32684;-89
2022/11/20 11:12:19;;;;;;;1.23;1.23;;;;;;;8.96;56.50;99489.59;4337569;32;32853;-89
2022/11/20 11:14:49;;;;;;;1.90;1.80;;;;;;;9.13;56.17;99499.44;4349646;32;32609;-89
2022/11/20 11:17:27;;;;;;;1.73;1.48;;;;;;;9.35;55.56;99502.84;4354333;32;32792;-89
2022/11/20 11:20:04;;;;;;;6.25;2.30;;;;;;;9.40;55.78;99516.69;4337435;32;33664;-89
2022/11/20 11:22:34;;;;;;;1.17;1.08;;;;;;;9.19;55.81;99515.81;4349613;32;34288;-89
2022/11/20 11:25:03;;;;;;;6.53;3.20;;;;;;;9.52;54.48;99514.44;4331700;32;33987;-89
2022/11/20 11:27:31;;;;;;;1.37;1.30;;;;;;;9.38;54.48;99513.25;4349209;32;33209;-89
2022/11/20 11:30:12;;;;;;;2.70;2.60;;;;;;;8.94;56.25;99507.25;4349211;32;33041;-89
2022/11/20 11:32:41;;;;;;;;;;;;;;;9.44;55.21;99506.84;4337732;32;32614;-88
2022/11/20 11:35:28;;;;;;;2.95;1.73;;;;;;;9.66;54.29;99498.84;4361601;32;34324;-88
2022/11/20 11:38:10;;;;;;;0.52;0.52;;;;;;;9.43;55.28;99499.88;4349336;32;33836;-89
2022/11/20 11:40:39;;;;;;;1.65;1.55;;;;;;;9.10;56.46;99496.91;4349304;32;33338;-88
2022/11/20 11:46:19;;;;;;;2.67;2.25;;;;;;;9.09;56.34;99495.19;4361232;32;33722;-88
2022/11/20 11:48:58;;;;;;;2.00;1.83;;;;;;;9.33;55.43;99486.25;4349284;32;32419;-88
2022/11/20 11:51:58;;;;;;;3.50;3.05;;;;;;;9.40;55.31;99477.16;4361358;32;33147;-88
2022/11/20 11:54:45;;;;;;;0.73;0.73;;;;;;;9.46;55.23;99468.97;4366405;32;33602;-88
2022/11/20 11:57:28;;;;;;;2.03;1.92;;;;;;;9.27;56.36;99473.34;4336756;32;34163;-88
2022/11/20 12:00:09;;;;;;;4.22;2.33;;;;;;;9.19;56.68;99467.53;4338941;32;33072;-89
2022/11/20 12:02:43;;;;;;;7.30;3.78;;;;;;;9.06;56.90;99475.09;4373437;32;33830;-88
2022/11/20 12:05:24;;;;;;;2.50;2.40;;;;;;;9.07;57.39;99475.97;4350386;32;32929;-89
2022/11/20 12:08:04;;;;;;;3.80;2.40;;;;;;;9.56;56.11;99473.84;4363660;32;32838;-89
2022/11/20 12:10:46;;;;;;;3.03;2.83;;;;;;;9.55;56.45;99466.87;4375304;32;33824;-88
2022/11/20 12:13:22;;;;;;;3.55;3.35;;;;;;;9.86;55.38;99466.31;4363421;32;32473;-88
2022/11/20 12:15:49;;;;;;;2.33;2.08;;;;;;;9.97;54.75;99458.78;4363137;32;33005;-89
2022/11/20 12:18:20;;;;;;;2.15;2.03;;;;;;;9.78;55.09;99464.03;4350961;32;33560;-89
2022/11/20 12:21:16;;;;;;;7.40;2.42;;;;;;;9.46;56.90;99468.97;4363368;32;33264;-88
2022/11/20 12:24:01;;;;;;;3.87;2.80;;;;;;;9.38;57.68;99462.31;4363479;32;32834;-89
2022/11/20 12:26:35;;;;;;;1.02;1.02;;;;;;;9.46;57.33;99458.44;4343064;32;33303;-89
2022/11/20 12:29:15;;;;;;;4.87;3.22;;;;;;;9.67;56.25;99456.59;4375434;32;33092;-88
2022/11/20 12:36:17;;;;;;;1.90;1.80;;;;;;;9.04;58.78;99457.69;4363297;32;33357;-89
2022/11/20 12:39:16;;;;;;;2.42;1.42;;;;;;;9.30;57.20;99446.84;4375284;32;34214;-89
2022/11/20 12:45:09;;;;;;;1.50;1.40;;;;;;;9.85;55.94;99441.72;4364026;32;33488;-89
2022/11/20 12:47:51;;;;;;;8.20;3.65;;;;;;;9.37;57.64;99448.31;4374264;32;33780;-89
2022/11/20 12:50:40;;;;;;;5.80;4.18;;;;;;;9.21;58.00;99456.03;4363405;32;34011;-89
2022/11/20 12:53:43;;;;;;;1.58;1.48;;;;;;;9.60;57.10;99457.81;4365145;32;33291;-88
2022/11/20 12:56:17;;;;;;;2.47;2.33;;;;;;;9.51;56.68;99462.66;4362535;32;32695;-88
2022/11/20 12:59:01;;;;;;;6.32;5.07;;;;;;;9.41;57.24;99464.84;4362410;32;33740;-88